createdAt,value
2022-08-30T00:02:06.086Z,7.93
2022-08-30T00:04:33.046Z,6.10
2022-08-30T00:07:00.105Z,8.10
2022-08-30T00:09:27.002Z,8.90
2022-08-30T00:11:54.130Z,6.20
2022-08-30T00:14:20.964Z,7.07
2022-08-30T00:16:47.864Z,7.70
2022-08-30T00:19:14.811Z,5.20
2022-08-30T00:21:41.785Z,3.90
2022-08-30T00:24:08.709Z,9.13
2022-08-30T00:26:35.570Z,7.97
2022-08-30T00:29:02.561Z,7.10
2022-08-30T00:31:29.542Z,7.30
2022-08-30T00:33:56.398Z,9.87
2022-08-30T00:36:23.307Z,6.40
2022-08-30T00:38:50.145Z,6.83
2022-08-30T00:41:17.017Z,6.63
2022-08-30T00:43:43.903Z,9.43
2022-08-30T00:46:10.897Z,7.83
2022-08-30T00:48:41.242Z,9.20
2022-08-30T00:51:10.220Z,8.53
2022-08-30T00:53:40.076Z,6.97
2022-08-30T00:56:07.608Z,7.17
2022-08-30T00:58:37.255Z,6.33
2022-08-30T01:01:06.931Z,7.20
2022-08-30T01:03:34.364Z,3.83
2022-08-30T01:06:02.003Z,6.50
2022-08-30T01:08:29.098Z,8.93
2022-08-30T01:10:57.537Z,5.47
2022-08-30T01:13:26.276Z,6.67
2022-08-30T01:15:54.009Z,7.57
2022-08-30T01:18:23.371Z,11.17
2022-08-30T01:21:00.750Z,6.67
2022-08-30T01:23:29.002Z,8.00
2022-08-30T01:25:57.165Z,6.23
2022-08-30T01:28:26.364Z,6.90
2022-08-30T01:30:53.647Z,8.10
2022-08-30T01:33:21.948Z,7.50
2022-08-30T01:35:57.472Z,5.67
2022-08-30T01:38:28.116Z,6.40
2022-08-30T01:41:14.363Z,8.90
2022-08-30T01:43:41.621Z,5.43
2022-08-30T01:46:11.189Z,9.03
2022-08-30T01:48:40.134Z,5.30
2022-08-30T01:51:12.149Z,4.87
2022-08-30T01:53:40.508Z,6.20
2022-08-30T01:56:08.041Z,6.93
2022-08-30T01:58:36.599Z,7.63
2022-08-30T02:01:09.917Z,9.80
2022-08-30T02:03:37.510Z,7.57
2022-08-30T02:06:10.227Z,8.37
2022-08-30T02:08:38.003Z,7.97
2022-08-30T02:11:06.819Z,10.30
2022-08-30T02:13:35.587Z,6.70
2022-08-30T02:16:02.482Z,5.97
2022-08-30T02:18:29.373Z,6.10
2022-08-30T02:20:56.221Z,10.13
2022-08-30T02:23:23.119Z,4.80
2022-08-30T02:25:50.004Z,8.17
2022-08-30T02:28:18.449Z,4.70
2022-08-30T02:30:46.436Z,7.13
2022-08-30T02:33:13.465Z,4.27
2022-08-30T02:35:40.521Z,3.97
2022-08-30T02:38:07.418Z,4.17
2022-08-30T02:40:34.719Z,6.10
2022-08-30T02:43:01.735Z,7.20
2022-08-30T02:45:28.700Z,7.00
2022-08-30T02:47:56.834Z,5.17
2022-08-30T02:50:24.641Z,6.07
2022-08-30T02:52:52.032Z,6.67
2022-08-30T02:55:21.149Z,8.27
2022-08-30T02:57:48.022Z,9.10
2022-08-30T03:00:17.486Z,7.17
2022-08-30T03:02:44.541Z,3.63
2022-08-30T03:05:13.349Z,6.00
2022-08-30T03:07:41.537Z,6.67
2022-08-30T03:10:09.264Z,6.73
2022-08-30T03:12:36.501Z,3.30
2022-08-30T03:15:08.041Z,11.77
2022-08-30T03:17:34.960Z,6.63
2022-08-30T03:20:02.484Z,5.63
2022-08-30T03:22:29.943Z,8.07
2022-08-30T03:25:01.556Z,7.37
2022-08-30T03:27:29.667Z,5.47
2022-08-30T03:29:56.800Z,6.43
2022-08-30T03:32:23.954Z,7.87
2022-08-30T03:34:51.082Z,10.43
2022-08-30T03:37:17.995Z,6.73
2022-08-30T03:39:45.698Z,7.97
2022-08-30T03:42:13.050Z,6.40
2022-08-30T03:44:40.110Z,5.83
2022-08-30T03:47:08.654Z,5.67
2022-08-30T03:49:35.679Z,8.53
2022-08-30T03:52:02.924Z,7.40
2022-08-30T03:54:29.837Z,4.53
2022-08-30T03:56:56.741Z,8.50
2022-08-30T03:59:23.913Z,4.83
2022-08-30T04:01:51.018Z,8.80
2022-08-30T04:04:20.884Z,5.33
2022-08-30T04:06:48.676Z,6.83
2022-08-30T04:09:15.591Z,6.00
2022-08-30T04:11:42.714Z,6.53
2022-08-30T04:14:09.648Z,5.30
2022-08-30T04:16:36.828Z,5.53
2022-08-30T04:19:04.315Z,8.70
2022-08-30T04:21:31.880Z,8.20
2022-08-30T04:23:59.145Z,7.27
2022-08-30T04:26:29.255Z,7.47
2022-08-30T04:28:56.827Z,5.77
2022-08-30T04:31:24.070Z,7.77
2022-08-30T04:33:51.136Z,4.63
2022-08-30T04:36:17.984Z,5.17
2022-08-30T04:38:44.848Z,6.40
2022-08-30T04:41:19.219Z,8.10
2022-08-30T04:43:47.409Z,7.43
2022-08-30T04:46:14.610Z,10.93
2022-08-30T04:48:41.625Z,6.10
2022-08-30T04:51:11.381Z,5.97
2022-08-30T04:53:38.312Z,7.17
2022-08-30T04:56:16.610Z,6.60
2022-08-30T04:58:47.569Z,7.70
2022-08-30T05:01:25.597Z,10.60
2022-08-30T05:03:53.989Z,5.40
2022-08-30T05:06:22.290Z,5.43
2022-08-30T05:08:50.001Z,7.67
2022-08-30T05:11:17.291Z,5.53
2022-08-30T05:13:44.849Z,4.77
2022-08-30T05:16:17.754Z,10.30
2022-08-30T05:18:45.905Z,9.40
2022-08-30T05:21:19.288Z,6.23
2022-08-30T05:23:46.816Z,7.60
2022-08-30T05:26:21.945Z,7.13
2022-08-30T05:28:50.283Z,12.80
2022-08-30T05:31:19.103Z,10.27
2022-08-30T05:33:46.565Z,6.63
2022-08-30T05:36:15.016Z,7.07
2022-08-30T05:38:42.540Z,11.53
2022-08-30T05:41:10.714Z,6.37
2022-08-30T05:43:38.847Z,5.20
2022-08-30T05:46:09.336Z,8.33
2022-08-30T05:48:36.915Z,7.10
2022-08-30T05:51:09.358Z,5.90
2022-08-30T05:53:36.473Z,8.17
2022-08-30T05:56:05.805Z,9.07
2022-08-30T05:58:33.573Z,7.47
2022-08-30T06:01:00.789Z,9.43
2022-08-30T06:03:28.432Z,6.20
2022-08-30T06:05:55.581Z,6.20
2022-08-30T06:08:22.551Z,8.27
2022-08-30T06:10:49.439Z,10.17
2022-08-30T06:13:16.429Z,6.23
2022-08-30T06:15:47.457Z,9.37
2022-08-30T06:18:14.505Z,5.10
2022-08-30T06:20:50.846Z,9.50
2022-08-30T06:23:18.193Z,3.77
2022-08-30T06:25:45.412Z,6.33
2022-08-30T06:28:13.419Z,4.00
2022-08-30T06:30:42.233Z,4.83
2022-08-30T06:33:10.447Z,6.90
2022-08-30T06:35:46.716Z,7.77
2022-08-30T06:38:19.227Z,7.13
2022-08-30T06:40:46.122Z,7.40
2022-08-30T06:43:13.179Z,3.73
2022-08-30T06:45:40.027Z,11.73
2022-08-30T06:48:06.860Z,5.47
2022-08-30T06:50:33.749Z,6.47
2022-08-30T06:53:06.015Z,6.80
2022-08-30T06:55:36.374Z,7.77
2022-08-30T06:58:04.159Z,7.77
2022-08-30T07:00:31.266Z,6.37
2022-08-30T07:02:58.367Z,6.33
2022-08-30T07:05:25.296Z,6.20
2022-08-30T07:07:54.390Z,4.07
2022-08-30T07:10:21.888Z,6.53
2022-08-30T07:12:49.717Z,7.87
2022-08-30T07:15:21.460Z,7.00
2022-08-30T07:18:06.730Z,6.27
2022-08-30T07:20:40.289Z,10.53
2022-08-30T07:23:09.094Z,5.80
2022-08-30T07:25:40.469Z,3.93
2022-08-30T07:28:09.596Z,5.97
2022-08-30T07:30:36.758Z,4.20
2022-08-30T07:33:03.941Z,3.70
2022-08-30T07:35:31.904Z,7.53
2022-08-30T07:37:59.219Z,4.47
2022-08-30T07:40:28.935Z,5.57
2022-08-30T07:42:55.841Z,6.00
2022-08-30T07:45:23.247Z,4.93
2022-08-30T07:47:50.092Z,8.30
2022-08-30T07:50:17.019Z,5.00
2022-08-30T07:52:44.684Z,4.53
2022-08-30T07:55:11.802Z,6.83
2022-08-30T07:57:38.653Z,6.10
2022-08-30T08:00:06.623Z,4.73
2022-08-30T08:02:33.881Z,5.37
2022-08-30T08:05:01.029Z,5.00
2022-08-30T08:07:27.916Z,10.00
2022-08-30T08:09:54.754Z,3.43
2022-08-30T08:12:21.712Z,4.00
2022-08-30T08:14:48.599Z,4.43
2022-08-30T08:17:15.440Z,5.43
2022-08-30T08:19:42.413Z,5.67
2022-08-30T08:22:20.685Z,5.40
2022-08-30T08:24:49.178Z,5.90
2022-08-30T08:27:16.681Z,8.30
2022-08-30T08:29:43.695Z,3.97
2022-08-30T08:32:10.601Z,5.00
2022-08-30T08:34:37.518Z,6.43
2022-08-30T08:37:05.344Z,5.43
2022-08-30T08:39:32.287Z,4.63
2022-08-30T08:42:20.998Z,7.33
2022-08-30T08:44:54.820Z,3.70
2022-08-30T08:47:30.873Z,5.97
2022-08-30T08:50:03.353Z,4.20
2022-08-30T08:53:07.170Z,4.77
2022-08-30T08:55:34.510Z,4.23
2022-08-30T08:58:01.984Z,3.40
2022-08-30T09:00:30.243Z,5.07
2022-08-30T09:02:59.720Z,4.90
2022-08-30T09:05:30.583Z,4.50
2022-08-30T09:08:10.208Z,5.60
2022-08-30T09:10:49.793Z,12.67
2022-08-30T09:13:19.048Z,43.20
2022-08-30T09:15:51.025Z,43.70
2022-08-30T09:18:21.781Z,58.50
2022-08-30T09:20:50.292Z,56.73
2022-08-30T09:23:17.497Z,44.33
2022-08-30T09:25:54.057Z,35.00
2022-08-30T09:28:29.630Z,44.83
2022-08-30T09:31:06.807Z,38.83
2022-08-30T09:33:37.302Z,27.33
2022-08-30T09:36:14.987Z,28.00
2022-08-30T09:38:42.128Z,22.47
2022-08-30T09:41:37.022Z,15.27
2022-08-30T09:44:16.760Z,28.37
2022-08-30T09:46:57.069Z,35.20
2022-08-30T09:49:43.310Z,15.07
2022-08-30T09:52:31.037Z,18.53
2022-08-30T09:55:37.083Z,18.47
2022-08-30T09:58:17.201Z,18.63
2022-08-30T10:01:20.989Z,12.33
2022-08-30T10:04:17.580Z,8.33
2022-08-30T10:06:54.621Z,7.17
2022-08-30T10:09:49.866Z,9.60
2022-08-30T10:12:26.985Z,7.60
2022-08-30T10:15:15.535Z,5.30
2022-08-30T10:17:51.469Z,4.50
2022-08-30T10:20:33.931Z,7.00
2022-08-30T10:23:07.755Z,3.83
2022-08-30T10:25:37.843Z,4.10
2022-08-30T10:28:06.576Z,7.73
2022-08-30T10:30:36.595Z,2.63
2022-08-30T10:33:18.092Z,5.23
2022-08-30T10:35:52.885Z,4.93
2022-08-30T10:38:36.698Z,5.13
2022-08-30T10:41:28.018Z,3.87
2022-08-30T10:44:07.935Z,6.27
2022-08-30T10:47:14.493Z,4.67
2022-08-30T10:49:54.689Z,3.17
2022-08-30T10:52:29.674Z,4.50
2022-08-30T10:55:08.681Z,5.83
2022-08-30T10:57:37.310Z,3.70
2022-08-30T11:00:10.997Z,3.30
2022-08-30T11:02:59.215Z,4.50
2022-08-30T11:05:29.060Z,5.40
2022-08-30T11:08:23.009Z,6.43
2022-08-30T11:11:24.043Z,5.87
2022-08-30T11:13:54.619Z,6.60
2022-08-30T11:16:38.788Z,5.73
2022-08-30T11:19:16.102Z,4.17
2022-08-30T11:21:46.953Z,6.73
2022-08-30T11:24:17.518Z,2.23
2022-08-30T11:26:47.143Z,3.83
2022-08-30T11:29:37.350Z,5.10
2022-08-30T11:32:13.674Z,4.63
2022-08-30T11:34:49.467Z,5.07
2022-08-30T11:37:33.899Z,5.27
2022-08-30T11:40:01.980Z,3.73
2022-08-30T11:42:32.838Z,4.67
2022-08-30T11:45:24.824Z,6.17
2022-08-30T11:47:57.121Z,3.87
2022-08-30T11:50:47.796Z,6.60
2022-08-30T11:53:42.778Z,4.87
2022-08-30T11:56:21.433Z,4.20
2022-08-30T11:58:55.072Z,4.40
2022-08-30T12:01:50.508Z,6.90
2022-08-30T12:04:17.459Z,4.83
2022-08-30T12:06:53.779Z,4.10
2022-08-30T12:09:20.655Z,3.10
2022-08-30T12:12:02.569Z,2.93
2022-08-30T12:14:41.177Z,6.20
2022-08-30T12:17:34.197Z,4.53
2022-08-30T12:20:01.272Z,5.20
2022-08-30T12:22:30.691Z,2.77
2022-08-30T12:24:58.009Z,4.50
2022-08-30T12:27:33.417Z,3.40
2022-08-30T12:30:04.493Z,5.40
2022-08-30T12:32:31.875Z,3.67
2022-08-30T12:35:02.475Z,5.63
2022-08-30T12:37:42.197Z,4.73
2022-08-30T12:40:19.742Z,4.90
2022-08-30T12:43:00.938Z,5.90
2022-08-30T12:45:31.469Z,4.40
2022-08-30T12:48:07.528Z,4.40
2022-08-30T12:50:37.851Z,5.03
2022-08-30T12:53:11.707Z,4.83
2022-08-30T12:55:59.726Z,3.63
2022-08-30T12:58:42.733Z,4.17
2022-08-30T13:01:18.638Z,3.57
2022-08-30T13:04:21.587Z,4.97
2022-08-30T13:06:58.555Z,5.73
2022-08-30T13:09:35.952Z,3.27
2022-08-30T13:12:07.904Z,3.20
2022-08-30T13:14:45.175Z,4.00
2022-08-30T13:17:25.303Z,3.40
2022-08-30T13:20:12.451Z,2.97
2022-08-30T13:22:41.675Z,6.83
2022-08-30T13:25:10.620Z,3.70
2022-08-30T13:27:38.879Z,4.57
2022-08-30T13:30:13.587Z,3.30
2022-08-30T13:32:41.111Z,4.27
2022-08-30T13:35:08.881Z,3.87
2022-08-30T13:37:52.052Z,4.67
2022-08-30T13:40:21.186Z,3.77
2022-08-30T13:42:48.942Z,3.23
2022-08-30T13:48:04.798Z,3.87
2022-08-30T13:50:33.399Z,5.37
2022-08-30T13:53:00.719Z,2.60
2022-08-30T13:55:28.325Z,3.07
2022-08-30T13:57:56.668Z,3.70
2022-08-30T14:00:25.368Z,3.87
2022-08-30T14:02:59.838Z,3.87
2022-08-30T14:05:51.025Z,4.20
2022-08-30T14:08:45.311Z,3.17
2022-08-30T14:11:18.366Z,2.90
2022-08-30T14:16:34.011Z,3.03
2022-08-30T14:19:01.518Z,4.50
2022-08-30T14:21:28.570Z,6.40
2022-08-30T14:23:57.709Z,4.23
2022-08-30T14:26:33.012Z,6.17
2022-08-30T14:29:02.586Z,3.93
2022-08-30T14:31:32.884Z,4.10
2022-08-30T14:34:02.051Z,5.63
2022-08-30T14:36:30.879Z,7.27
2022-08-30T14:38:58.577Z,3.30
2022-08-30T14:41:25.950Z,2.87
2022-08-30T14:43:53.006Z,4.67
2022-08-30T14:46:20.081Z,3.40
2022-08-30T14:48:47.123Z,2.60
2022-08-30T14:51:20.019Z,5.37
2022-08-30T14:53:47.764Z,2.43
2022-08-30T14:56:17.369Z,6.63
2022-08-30T14:58:49.045Z,5.33
2022-08-30T15:01:16.009Z,3.67
2022-08-30T15:03:43.003Z,5.70
2022-08-30T15:06:10.749Z,5.47
2022-08-30T15:08:38.018Z,2.80
2022-08-30T15:11:11.862Z,4.00
2022-08-30T15:13:39.828Z,9.73
2022-08-30T15:16:11.769Z,3.10
2022-08-30T15:18:38.986Z,5.30
2022-08-30T15:21:09.714Z,5.63
2022-08-30T15:23:37.665Z,3.90
2022-08-30T15:26:07.139Z,8.07
2022-08-30T15:28:35.085Z,6.10
2022-08-30T15:31:06.258Z,10.50
2022-08-30T15:33:36.902Z,4.87
2022-08-30T15:36:05.383Z,4.97
2022-08-30T15:38:33.297Z,4.47
2022-08-30T15:41:03.718Z,4.13
2022-08-30T15:43:31.620Z,3.60
2022-08-30T15:46:29.416Z,4.03
2022-08-30T15:49:00.421Z,4.80
2022-08-30T15:51:28.090Z,2.80
2022-08-30T15:53:55.143Z,3.83
2022-08-30T15:56:22.287Z,6.47
2022-08-30T15:58:49.324Z,6.47
2022-08-30T16:01:19.987Z,3.17
2022-08-30T16:03:57.461Z,5.23
2022-08-30T16:06:38.525Z,4.70
2022-08-30T16:09:07.367Z,8.17
2022-08-30T16:11:34.968Z,3.80
2022-08-30T16:14:02.060Z,5.37
2022-08-30T16:16:31.289Z,4.13
2022-08-30T16:18:59.371Z,6.90
2022-08-30T16:21:29.183Z,4.63
2022-08-30T16:23:58.800Z,3.93
2022-08-30T16:26:26.516Z,4.53
2022-08-30T16:28:54.240Z,5.80
2022-08-30T16:31:22.536Z,4.93
2022-08-30T16:33:52.417Z,2.90
2022-08-30T16:36:21.336Z,4.17
2022-08-30T16:38:49.999Z,5.07
2022-08-30T16:41:21.970Z,4.93
2022-08-30T16:43:50.219Z,4.50
2022-08-30T16:46:27.228Z,3.33
2022-08-30T16:48:57.211Z,4.67
2022-08-30T16:51:27.071Z,4.60
2022-08-30T16:53:58.597Z,6.53
2022-08-30T16:56:27.323Z,5.33
2022-08-30T16:59:01.311Z,2.57
2022-08-30T17:01:31.901Z,3.20
2022-08-30T17:03:59.017Z,4.33
2022-08-30T17:06:26.377Z,4.23
2022-08-30T17:08:56.539Z,3.23
2022-08-30T17:11:24.625Z,4.90
2022-08-30T17:13:51.976Z,5.53
2022-08-30T17:16:22.748Z,4.33
2022-08-30T17:18:55.205Z,3.80
2022-08-30T17:21:22.102Z,5.37
2022-08-30T17:23:50.297Z,7.03
2022-08-30T17:26:18.691Z,3.53
2022-08-30T17:28:45.866Z,4.67
2022-08-30T17:34:03.527Z,4.80
2022-08-30T17:36:32.482Z,4.67
2022-08-30T17:38:59.434Z,4.20
2022-08-30T17:41:26.364Z,3.10
2022-08-30T17:43:54.034Z,4.07
2022-08-30T17:46:21.574Z,4.57
2022-08-30T17:48:56.513Z,6.53
2022-08-30T17:51:25.070Z,8.27
2022-08-30T17:53:51.985Z,4.00
2022-08-30T17:56:19.456Z,6.13
2022-08-30T17:58:47.643Z,7.03
2022-08-30T18:01:15.474Z,4.47
2022-08-30T18:03:45.565Z,6.40
2022-08-30T18:06:13.492Z,4.40
2022-08-30T18:08:40.882Z,5.27
2022-08-30T18:11:08.717Z,6.40
2022-08-30T18:13:35.758Z,7.77
2022-08-30T18:16:03.473Z,5.80
2022-08-30T18:18:31.309Z,4.33
2022-08-30T18:20:59.124Z,5.43
2022-08-30T18:23:27.159Z,5.87
2022-08-30T18:25:59.953Z,3.33
2022-08-30T18:28:28.104Z,3.30
2022-08-30T18:30:58.509Z,9.33
2022-08-30T18:33:26.766Z,4.03
2022-08-30T18:35:55.978Z,4.03
2022-08-30T18:38:23.922Z,4.37
2022-08-30T18:40:52.122Z,5.43
2022-08-30T18:43:22.931Z,4.60
2022-08-30T18:45:57.280Z,5.87
2022-08-30T18:48:24.222Z,4.73
2022-08-30T18:50:54.206Z,6.33
2022-08-30T18:53:29.114Z,6.30
2022-08-30T18:55:56.952Z,4.80
2022-08-30T18:58:24.093Z,5.80
2022-08-30T19:00:51.036Z,5.70
2022-08-30T19:03:18.925Z,7.60
2022-08-30T19:05:46.711Z,5.37
2022-08-30T19:08:14.431Z,6.33
2022-08-30T19:10:41.615Z,5.53
2022-08-30T19:13:09.905Z,8.27
2022-08-30T19:15:37.778Z,4.77
2022-08-30T19:18:16.747Z,4.40
2022-08-30T19:20:45.619Z,7.97
2022-08-30T19:23:14.614Z,10.77
2022-08-30T19:25:42.378Z,6.10
2022-08-30T19:28:09.788Z,5.30
2022-08-30T19:30:36.960Z,5.27
2022-08-30T19:33:04.080Z,6.50
2022-08-30T19:35:32.768Z,7.03
2022-08-30T19:37:59.757Z,6.57
2022-08-30T19:40:26.890Z,8.63
2022-08-30T19:42:53.933Z,5.77
2022-08-30T19:45:21.918Z,6.10
2022-08-30T19:47:50.251Z,5.90
2022-08-30T19:50:17.699Z,6.10
2022-08-30T19:52:48.398Z,9.57
2022-08-30T19:55:23.776Z,7.23
2022-08-30T19:57:56.068Z,6.23
2022-08-30T20:00:23.561Z,5.70
2022-08-30T20:02:51.324Z,7.53
2022-08-30T20:05:19.202Z,9.70
2022-08-30T20:07:51.018Z,8.83
2022-08-30T20:10:20.799Z,6.63
2022-08-30T20:12:52.837Z,7.13
2022-08-30T20:15:19.730Z,6.10
2022-08-30T20:18:05.359Z,5.60
2022-08-30T20:20:33.796Z,8.87
2022-08-30T20:23:04.698Z,6.57
2022-08-30T20:24:23.739Z,9.50
2022-08-30T20:25:31.884Z,6.40
2022-08-30T20:27:59.599Z,6.43
2022-08-30T20:30:27.318Z,4.50
2022-08-30T20:32:54.432Z,6.23
2022-08-30T20:35:21.815Z,7.50
2022-08-30T20:37:49.460Z,5.17
2022-08-30T20:40:16.625Z,8.47
2022-08-30T20:42:46.557Z,8.53
2022-08-30T20:45:15.312Z,6.87
2022-08-30T20:47:43.168Z,7.30
2022-08-30T20:50:14.846Z,7.33
2022-08-30T20:52:42.197Z,5.97
2022-08-30T20:55:10.326Z,4.83
2022-08-30T20:57:37.390Z,7.87
2022-08-30T21:00:08.192Z,7.80
2022-08-30T21:02:37.417Z,6.13
2022-08-30T21:05:15.587Z,7.13
2022-08-30T21:07:46.570Z,8.87
2022-08-30T21:10:14.266Z,5.53
2022-08-30T21:12:43.012Z,9.90
2022-08-30T21:15:33.855Z,6.83
2022-08-30T21:17:57.156Z,8.67
2022-08-30T21:20:24.026Z,7.57
2022-08-30T21:23:02.631Z,5.00
2022-08-30T21:25:34.385Z,8.90
2022-08-30T21:28:01.475Z,5.27
2022-08-30T21:30:28.388Z,9.03
2022-08-30T21:32:55.379Z,5.10
2022-08-30T21:35:46.315Z,5.40
2022-08-30T21:38:13.256Z,7.20
2022-08-30T21:40:40.255Z,5.83
2022-08-30T21:43:07.924Z,4.40
2022-08-30T21:45:41.780Z,6.53
2022-08-30T21:48:08.918Z,6.03
2022-08-30T21:50:38.586Z,5.37
2022-08-30T21:53:06.227Z,8.40
2022-08-30T21:55:33.408Z,8.17
2022-08-30T21:58:00.400Z,14.00
2022-08-30T22:00:27.244Z,7.20
2022-08-30T22:02:54.600Z,6.77
2022-08-30T22:05:21.696Z,11.27
2022-08-30T22:07:48.524Z,5.90
2022-08-30T22:10:15.516Z,6.73
2022-08-30T22:12:42.403Z,6.73
2022-08-30T22:15:10.594Z,7.57
2022-08-30T22:17:37.429Z,7.43
2022-08-30T22:20:06.056Z,5.83
2022-08-30T22:22:33.078Z,4.93
2022-08-30T22:24:59.919Z,7.73
2022-08-30T22:27:26.860Z,5.97
2022-08-30T22:29:53.707Z,6.67
2022-08-30T22:32:21.655Z,6.97
2022-08-30T22:34:49.942Z,5.50
2022-08-30T22:37:16.921Z,7.80
2022-08-30T22:39:43.800Z,3.67
2022-08-30T22:42:10.746Z,5.47
2022-08-30T22:44:37.641Z,6.83
2022-08-30T22:47:04.693Z,3.43
2022-08-30T22:49:31.624Z,6.17
2022-08-30T22:51:58.533Z,7.47
2022-08-30T22:54:25.479Z,10.50
2022-08-30T22:56:52.327Z,5.73
2022-08-30T22:59:19.240Z,5.93
2022-08-30T23:01:47.252Z,6.80
2022-08-30T23:04:14.201Z,7.30
2022-08-30T23:06:41.617Z,4.17
2022-08-30T23:09:16.674Z,7.43
2022-08-30T23:11:43.565Z,6.63
2022-08-30T23:14:10.624Z,8.53
2022-08-30T23:16:38.087Z,9.30
2022-08-30T23:19:05.266Z,4.60
2022-08-30T23:21:32.232Z,4.50
2022-08-30T23:24:18.476Z,6.70
2022-08-30T23:27:06.043Z,7.07
2022-08-30T23:29:52.033Z,4.50
2022-08-30T23:32:38.219Z,5.77
2022-08-30T23:35:29.351Z,9.17
2022-08-30T23:38:16.731Z,4.97
2022-08-30T23:41:02.264Z,4.83
2022-08-30T23:43:47.832Z,4.83
2022-08-30T23:46:33.369Z,3.33
2022-08-30T23:49:19.037Z,6.10
2022-08-30T23:52:04.529Z,7.63
2022-08-30T23:54:50.196Z,3.80
2022-08-30T23:57:35.650Z,5.83
